Imphal, India

4:49 PM IST on July 28, 2016 (GMT +0530)
Imphal | | Change Station

Elev 2539 ft 24.76 °N, 93.90 °E | Updated 19 minutes ago

Scattered Clouds
Scattered Clouds
81 °F
Feels Like 85 °F
N
2
Wind Variable Wind from East

Today
High -- | Low -- °F
--% Chance of Precip.
Yesterday
High -- | Low -- °F
Precip. -- in
Pressure 29.71 in
Visibility 3.7 miles
Clouds Few 1800 ft
Few 3000 ft
Scattered Clouds 10000 ft
Heat Index 85 °F
Dew Point 72 °F
Humidity 74%
Rainfall 0.00 in
Snow Depth Not available.
4:20 AM 5:40 PM
Waning Crescent, 33% visible
METAR VEIM 281100Z 09002KT 6000 FEW018 FEW030CB SCT100 27/22 Q1006 NOSIG
Pressure 29.71 in
Visibility 3.7 miles
Clouds Few 1800 ft
Few 3000 ft
Scattered Clouds 10000 ft
Heat Index 85 °F
Dew Point 72 °F
Humidity 74%
Rainfall 0.00 in
Snow Depth Not available.
4:20 AM 5:40 PM
Waning Crescent, 33% visible
METAR VEIM 281100Z 09002KT 6000 FEW018 FEW030CB SCT100 27/22 Q1006 NOSIG

10-Day Weather Forecast

No radar image for this location.
×

Almanac

Astronomy

Jul. 28, 2016 Rise Set
Actual Time
Civil Twilight
Nautical Twilight
Astronomical Twilight
Moon
Length of Visible Light
Length of Day
Tomorrow will be .
, % of the Moon is Illuminated

Today's Extremes

Country Highs Country Lows

Community

WunderPhotos

Upload Photos

1,928,082 photos uploaded!

WunderBlog® & News

Nearby

Air Quality

  Air Quality AQ Index Pollutant
Not available.

Snow Depth

Station Depth Elevation

Earthquake Activity

City Distance Mag. Time & Date
Minimum magnitude displayed is 2.5.

Coastal Water Temperatures

Place Temperature

Stations

Nearby Weather Stations

Station Location Temp. Windchill Dew Point Humidity Wind Precip. Elev Updated Type